createdAt,value
2022-09-03T00:12:02.511Z,2.40
2022-09-03T00:27:07.044Z,2.67
2022-09-03T00:42:40.022Z,2.50
2022-09-03T00:57:48.285Z,2.60
2022-09-03T04:35:16.225Z,2.60
2022-09-03T04:50:18.214Z,2.08
2022-09-03T05:05:23.248Z,2.40
2022-09-03T05:20:25.715Z,2.30
2022-09-03T05:35:30.444Z,2.30
2022-09-03T05:50:32.505Z,2.30
2022-09-03T06:05:34.431Z,2.05
2022-09-03T06:20:37.292Z,2.40
2022-09-03T06:35:43.106Z,2.28
2022-09-03T06:50:49.555Z,2.33
2022-09-03T07:05:51.574Z,2.40
2022-09-03T07:20:57.664Z,2.50
2022-09-03T07:36:04.664Z,2.40
2022-09-03T07:51:07.096Z,3.00
2022-09-03T08:06:09.490Z,2.72
2022-09-03T08:21:17.037Z,2.70
2022-09-03T08:36:22.941Z,2.70
2022-09-03T08:51:28.194Z,2.53
2022-09-03T09:06:42.590Z,2.55
2022-09-03T09:21:57.332Z,2.78
2022-09-03T09:36:59.509Z,2.33
2022-09-03T09:52:06.585Z,1.98
2022-09-03T10:07:24.997Z,2.25
2022-09-03T10:22:26.976Z,2.17
2022-09-03T10:37:39.056Z,2.33
2022-09-03T10:52:44.921Z,2.28
2022-09-03T11:07:55.661Z,2.20
2022-09-03T11:22:59.575Z,2.38
2022-09-03T11:38:03.497Z,2.20
2022-09-03T11:53:15.234Z,2.20
2022-09-03T12:08:52.993Z,2.17
2022-09-03T12:23:58.173Z,2.22
2022-09-03T12:39:11.894Z,2.30
2022-09-03T12:54:16.181Z,2.13
2022-09-03T13:09:26.490Z,2.30
2022-09-03T13:24:40.755Z,2.33
2022-09-03T13:39:47.908Z,2.47
2022-09-03T13:54:53.224Z,2.30
2022-09-03T14:10:11.781Z,2.53
2022-09-03T14:25:20.601Z,2.10
2022-09-03T14:40:45.619Z,2.30
2022-09-03T14:55:53.783Z,2.40
2022-09-03T15:11:00.107Z,2.22
2022-09-03T15:26:14.219Z,2.25
2022-09-03T15:41:22.887Z,2.15
2022-09-03T15:56:40.597Z,1.98
2022-09-03T16:11:56.940Z,2.33
2022-09-03T16:27:10.251Z,2.30
2022-09-03T16:42:24.958Z,2.72
2022-09-03T16:57:36.743Z,2.90
2022-09-03T17:13:17.284Z,2.60
2022-09-03T17:28:42.469Z,2.80
2022-09-03T17:44:15.102Z,2.88
2022-09-03T17:59:33.221Z,2.50
2022-09-03T18:14:55.293Z,2.70
2022-09-03T18:30:29.533Z,2.60
2022-09-03T19:01:48.117Z,2.70
2022-09-03T19:17:39.768Z,2.80
2022-09-03T19:33:36.586Z,3.17
2022-09-03T19:49:09.474Z,3.42
2022-09-03T20:04:34.149Z,3.47
2022-09-03T20:19:45.681Z,3.65
2022-09-03T20:35:05.777Z,3.50
2022-09-03T20:50:23.161Z,3.35
2022-09-03T21:05:40.686Z,3.42
2022-09-03T21:20:46.903Z,3.20
2022-09-03T21:35:54.897Z,3.25
2022-09-03T21:50:58.575Z,3.00
2022-09-03T22:06:13.684Z,2.90
2022-09-03T22:21:30.281Z,3.00
2022-09-03T22:37:03.876Z,2.83
2022-09-03T22:52:33.747Z,2.85
2022-09-03T23:07:54.278Z,3.00
2022-09-03T23:23:03.576Z,2.78
2022-09-03T23:38:32.311Z,3.00
2022-09-03T23:53:47.261Z,2.95
